Georgetown, Missouri
Current Conditions -  °F | °C
As of 12:53 AM on Thursday 18 Dec 2014 (Local Time) from KDMO Reporting Station
Light Snow Light Snow  
Wind Chill: 26°   Ceiling: 4400
Heat Index: 32°   Visibility: 8mi
Dew Point: 26°   Wind: 6mph
Humidity: 79%   Direction: 40°NE
Pressure: 30.26"   Gusts: NA
Location:  38.6763°N, 93.2612°W
Report Text: KDMO 180653Z AUTO 04005KT 8SM -SN FEW026 OVC044 00/M03 A3026 RMK AO2 SNB46 SLP254 P0000 T00001033
Loading
Personal Weather Stations






























Interactive Weather Map New forecast layout! Learn more

10-Day Weather Forecast

Advertisements
Track Severe Weather on mobile